Database: COMPET-N - COOP - 3PL - 4PL - CNDOOM

WAD: Doom | Doom 2 | TNT | Plutonia | AV | HR | Scythe | MM | MM2 | Requiem | CE
Category: speed | nmare | max | nm100s | tyson | pacifist | fast | respawn | nomo | misc | built | all
Highscore: ALL | IWAD | PWAD | Country | Continent

Remove: wad | map | category | player | all
MapPlayerTimeDateFilenameCommentsDL
MAP25: Chaos ZoneVdgg 2:23.002011-01-27rq25-223.zip - 188
MAP11: Rats in the WallsVdgg 2:42.002013-02-14rq11-242.zip - 204
MAP11: Rats in the WallsVdgg 2:52.002011-06-24rq11-252.zip - 224
MAP17: Processing AreaVdgg 2:55.002014-07-24ev17-255.zip - 332
MAP12: The WaterwayVdgg 2:58.002011-10-09m212-258.zip - 264
MAP17: Processing AreaVdgg 3:08.002011-02-06ev17-308.zip - 263
MAP12: The WaterwayVdgg 3:15.002010-01-03m212-315.zip - 217
MAP14: AquaductVdgg 3:40.002013-10-25mm14-340.zip - 268
MAP16: The NephilimVdgg 4:56.002013-02-04m216-456.zip - 280
MAP24: Io LabVdgg 4:56.832018-11-27m224-456.zip - 278
MAP24: Procrustes ChambersVdgg 5:35.002010-08-01rq24-535.zip - 257
MAP10: Clear for DeathVdgg 5:57.542018-11-12m210-557.zip - 190
MAP05: Rites of PassageVdgg 6:15.002012-11-20m205-615.zip - 288
MAP10: Clear for DeathVdgg 6:24.002010-06-10m210-624.zip255
MAP10: Clear for DeathVdgg 6:41.002009-09-21m210-641.zip - 221
MAP17: No OneVdgg 7:09.002013-02-06m217-709.zip - 261
MAP13: The Inmost Dens IIVdgg 7:32.002011-04-12mm13-732.zip - 251
MAP15: The Devils CoterieVdgg 8:42.002013-03-18m215-842.zip - 252
MAP06: TrappedVdgg 8:43.002012-11-20m206-843.zip - 268
MAP06: TrappedVdgg 9:04.002011-08-18m206-904.zip - 210
MAP15: The Devils CoterieVdgg 9:30.002010-06-07m215-930.zip - 192
MAP25: Forgotten TownVdgg 9:53.002012-05-27m225-953.zip - 282
MAP14: A Question of TimeVdgg 10:06.002010-08-10m2141006.zip - 276
MAP27: The SilosVdgg 10:21.002011-10-27m2271021.zip - 271
MAP29: Kings of MetalVdgg 10:23.002010-03-07m2291023.zip264
MAP14: A Question of TimeVdgg 10:34.002010-01-22m2141034.zip - 203
MAP25: Forgotten TownVdgg 10:38.002010-01-10m2251038.zip - 220
MAP27: The SilosVdgg 11:00.002011-10-23m2271100.zip - 196
MAP29: Kings of MetalVdgg 11:07.002010-03-05m2291107.zip - 185
MAP29: Island of DeathVdgg 11:31.342014-08-30mm291131.zip - 601
MAP29: Island of DeathVdgg 12:00.002013-01-31mm291200.zip - 200
MAP29: DownerVdgg 13:13.002013-04-06rq291313.zip - 279
MAP27: Cursed KingdomVdgg 15:20.002012-10-24rq271520.zip - 233
EP1: HR Episode 1 (MAP01 - MAP10)Vdgg 37:43.002016-02-163743hr01.zip - 723
EP1: MM2 Episode 1 (MAP01 - MAP10)Vdgg 1:07:30.002011-08-216730m201.zip - 237
Remove: wad | map | category | player | all